Time;durP1;ratioP1;P1;durP2;ratioP2;P2;SDS_P1;SDS_P2;PMS_P1;PMS_P2;Temp;Humidity;BMP_temperature;BMP_pressure;BME280_temperature;BME280_humidity;BME280_pressure;Samples;Min_cycle;Max_cycle;Signal;HPM_P1;HPM_P2
2023/10/10 00:01:44;;;;;;;5.87;1.37;;;;;;;14.67;65.11;100210.97;4450948;32;34007;-82
2023/10/10 00:04:12;;;;;;;1.80;1.67;;;;;;;14.71;64.92;100212.53;4474905;32;34015;-82
2023/10/10 00:06:40;;;;;;;3.67;1.17;;;;;;;14.69;65.32;100220.59;4463112;32;33030;-82
2023/10/10 00:09:11;;;;;;;0.52;0.52;;;;;;;14.89;64.71;100213.34;4463394;32;33587;-82
2023/10/10 00:11:48;;;;;;;2.90;1.08;;;;;;;14.52;65.67;100213.53;4450206;32;31099;-81
2023/10/10 00:14:19;;;;;;;1.08;0.52;;;;;;;14.54;66.01;100211.66;4474855;32;34762;-79
2023/10/10 00:16:48;;;;;;;0.60;0.60;;;;;;;14.65;65.77;100207.56;4463261;32;33553;-79
2023/10/10 00:19:29;;;;;;;5.80;1.58;;;;;;;14.60;66.37;100205.16;4474150;32;32925;-79
2023/10/10 00:21:59;;;;;;;0.95;0.95;;;;;;;15.00;65.07;100203.84;4463275;32;34562;-80
2023/10/10 00:24:33;;;;;;;0.45;0.45;;;;;;;15.14;64.35;100207.50;4466136;32;33925;-79
2023/10/10 00:27:15;;;;;;;2.45;1.73;;;;;;;14.98;64.93;100208.38;4472663;32;33818;-80
2023/10/10 00:29:43;;;;;;;0.88;0.88;;;;;;;14.84;65.44;100211.78;4475892;32;33689;-80
2023/10/10 00:32:17;;;;;;;1.10;1.10;;;;;;;15.03;65.33;100214.28;4461033;32;34571;-80
2023/10/10 00:34:48;;;;;;;1.27;0.65;;;;;;;15.00;65.42;100222.47;4466683;32;34207;-79
2023/10/10 00:37:25;;;;;;;1.12;0.95;;;;;;;14.83;65.95;100223.37;4474351;32;33014;-80
2023/10/10 00:39:54;;;;;;;1.37;1.17;;;;;;;15.19;65.13;100224.06;4474422;32;34316;-80
2023/10/10 00:42:38;;;;;;;0.47;0.47;;;;;;;15.06;65.20;100214.13;4448746;32;33991;-80
2023/10/10 00:45:10;;;;;;;0.77;0.75;;;;;;;14.89;66.11;100210.69;4472585;32;36389;-79
2023/10/10 00:47:52;;;;;;;13.52;1.33;;;;;;;14.90;65.82;100215.91;4474521;32;33107;-80
2023/10/10 00:50:25;;;;;;;0.50;0.50;;;;;;;14.68;67.05;100215.38;4460518;32;33072;-79
2023/10/10 00:52:53;;;;;;;0.55;0.55;;;;;;;14.66;67.13;100217.25;4460021;32;34713;-79
2023/10/10 00:55:24;;;;;;;0.52;0.52;;;;;;;14.95;66.73;100221.81;4473680;32;33224;-79
2023/10/10 00:57:58;;;;;;;0.98;0.98;;;;;;;14.91;66.40;100224.75;4448726;32;33362;-79
2023/10/10 01:00:29;;;;;;;0.37;0.37;;;;;;;14.97;66.22;100224.41;4472963;32;33587;-79
2023/10/10 01:03:20;;;;;;;0.70;0.70;;;;;;;15.00;65.59;100230.44;4460710;32;33554;-80
2023/10/10 01:05:55;;;;;;;0.70;0.70;;;;;;;14.75;65.47;100230.03;4475412;32;34670;-80
2023/10/10 01:08:26;;;;;;;1.95;1.52;;;;;;;14.16;67.20;100242.00;4463060;32;33277;-79
2023/10/10 01:10:56;;;;;;;1.87;1.17;;;;;;;13.99;67.42;100242.84;4472960;32;32813;-80
2023/10/10 01:13:24;;;;;;;0.50;0.50;;;;;;;14.11;66.92;100236.94;4475198;32;33959;-80
2023/10/10 01:15:56;;;;;;;7.15;2.80;;;;;;;14.57;65.28;100248.72;4460005;32;33443;-80
2023/10/10 01:18:25;;;;;;;0.98;0.88;;;;;;;13.90;67.08;100251.28;4461590;32;32980;-80
2023/10/10 01:20:55;;;;;;;3.72;0.60;;;;;;;13.47;68.18;100256.03;4476453;32;34588;-79
2023/10/10 01:23:27;;;;;;;0.90;0.90;;;;;;;13.85;66.75;100254.16;4473669;32;34061;-79
2023/10/10 01:26:05;;;;;;;3.40;2.15;;;;;;;13.58;67.84;100257.25;4449373;32;32922;-79
2023/10/10 01:28:33;;;;;;;1.50;1.40;;;;;;;13.40;68.38;100260.81;4461033;32;32424;-79
2023/10/10 01:31:05;;;;;;;2.95;0.90;;;;;;;13.63;67.78;100264.13;4471127;32;33678;-80
2023/10/10 01:33:36;;;;;;;1.33;1.25;;;;;;;13.93;66.08;100262.59;4460752;32;33324;-81
2023/10/10 01:36:11;;;;;;;0.52;0.52;;;;;;;13.71;66.57;100268.09;4461529;32;33714;-81
2023/10/10 01:38:44;;;;;;;0.50;0.50;;;;;;;13.67;67.40;100271.00;4464993;32;33209;-81
2023/10/10 01:41:15;;;;;;;1.25;1.15;;;;;;;13.57;67.34;100262.62;4458888;32;33574;-81
2023/10/10 01:43:46;;;;;;;1.10;1.10;;;;;;;13.62;67.13;100267.69;4463127;32;34035;-81
2023/10/10 01:46:27;;;;;;;0.35;0.35;;;;;;;13.55;67.07;100262.69;4450266;32;33016;-81
2023/10/10 01:48:56;;;;;;;0.17;0.17;;;;;;;13.54;67.08;100262.78;4463184;32;33286;-81
2023/10/10 01:51:24;;;;;;;0.25;0.25;;;;;;;13.81;66.47;100264.09;4475691;32;34162;-81
2023/10/10 01:53:55;;;;;;;1.48;1.35;;;;;;;13.27;68.03;100267.63;4451921;32;32012;-81
2023/10/10 01:56:24;;;;;;;1.27;1.17;;;;;;;13.26;68.55;100261.44;4469561;32;35629;-79
2023/10/10 01:58:54;;;;;;;0.30;0.30;;;;;;;13.50;68.00;100253.25;4460001;32;33547;-80
2023/10/10 02:01:23;;;;;;;0.80;0.80;;;;;;;13.58;67.44;100257.25;4477725;32;34675;-80
2023/10/10 02:03:53;;;;;;;0.32;0.22;;;;;;;13.53;67.13;100248.66;4460880;32;34356;-82
2023/10/10 02:06:34;;;;;;;0.28;0.28;;;;;;;13.54;67.51;100255.69;4464354;32;32840;-80
2023/10/10 02:09:11;;;;;;;2.35;1.35;;;;;;;13.60;67.54;100258.97;4475136;32;33926;-80
2023/10/10 02:11:49;;;;;;;0.73;0.73;;;;;;;13.49;67.15;100265.66;4461186;32;32707;-80
2023/10/10 02:14:18;;;;;;;0.10;0.10;;;;;;;13.71;65.92;100256.63;4470524;32;33457;-80
2023/10/10 02:16:49;;;;;;;0.75;0.75;;;;;;;13.91;64.76;100256.53;4460628;32;32900;-80
2023/10/10 02:19:27;;;;;;;0.88;0.80;;;;;;;13.72;65.95;100261.00;4460864;32;32591;-79
2023/10/10 02:22:12;;;;;;;0.30;0.30;;;;;;;13.58;66.82;100257.25;4448497;32;32621;-79
2023/10/10 02:24:41;;;;;;;0.95;0.80;;;;;;;13.45;67.62;100258.78;4471992;32;34665;-80
2023/10/10 02:27:13;;;;;;;0.37;0.37;;;;;;;13.89;66.11;100261.03;4461395;32;33785;-79
2023/10/10 02:29:48;;;;;;;0.45;0.45;;;;;;;13.85;65.64;100270.09;4447554;32;32703;-79
2023/10/10 02:32:19;;;;;;;0.95;0.95;;;;;;;14.15;64.70;100264.16;4479968;32;33900;-79
2023/10/10 02:34:55;;;;;;;0.22;0.20;;;;;;;14.02;64.65;100272.78;4461044;32;34364;-79
2023/10/10 02:40:13;;;;;;;0.95;0.85;;;;;;;14.14;64.95;100263.31;4471108;32;33581;-79
2023/10/10 02:43:10;;;;;;;3.47;1.00;;;;;;;14.32;64.40;100264.16;4475529;32;34562;-79
2023/10/10 02:45:35;;;;;;;1.15;1.08;;;;;;;13.89;65.46;100276.97;4472610;32;33750;-80
2023/10/10 02:48:07;;;;;;;0.98;0.62;;;;;;;13.75;66.70;100269.69;4465041;32;34784;-80
2023/10/10 02:50:41;;;;;;;0.37;0.37;;;;;;;13.64;67.23;100276.47;4463183;32;33030;-80
2023/10/10 02:53:10;;;;;;;0.40;0.40;;;;;;;13.94;65.48;100274.94;4475494;32;34432;-80
2023/10/10 02:55:41;;;;;;;1.70;1.60;;;;;;;13.87;65.75;100268.22;4446496;32;33373;-80
2023/10/10 02:58:22;;;;;;;0.93;0.88;;;;;;;13.89;66.03;100279.62;4464825;32;32758;-80
2023/10/10 03:00:52;;;;;;;0.62;0.60;;;;;;;14.22;64.25;100270.91;4475262;32;33065;-80
2023/10/10 03:03:21;;;;;;;1.10;1.05;;;;;;;13.84;65.38;100285.16;4474661;32;34571;-79
2023/10/10 03:05:54;;;;;;;0.30;0.30;;;;;;;14.08;64.74;100280.41;4474727;32;33601;-79
2023/10/10 03:11:14;;;;;;;0.25;0.25;;;;;;;13.51;66.27;100285.00;4475251;32;33545;-79
2023/10/10 03:13:54;;;;;;;;;;;;;;;13.56;65.92;100283.00;4475406;32;33507;-79
2023/10/10 03:19:12;;;;;;;0.20;0.20;;;;;;;13.94;64.04;100284.69;4472991;32;32986;-79
2023/10/10 03:26:59;;;;;;;1.05;0.50;;;;;;;13.25;65.97;100290.72;4474526;32;33868;-79
2023/10/10 03:29:47;;;;;;;1.98;1.15;;;;;;;13.61;65.23;100288.06;4465846;32;32763;-79
2023/10/10 03:34:56;;;;;;;0.20;0.20;;;;;;;13.12;66.57;100294.81;4465355;32;33041;-79
2023/10/10 03:37:30;;;;;;;0.30;0.30;;;;;;;13.50;65.11;100290.41;4469180;32;33900;-79
2023/10/10 03:40:05;;;;;;;0.10;0.10;;;;;;;13.40;65.19;100294.44;4452872;32;32994;-79
2023/10/10 05:25:50;;;;;;;0.47;0.47;;;;;;;12.92;66.83;100357.56;4471324;32;34652;-79
2023/10/10 05:28:19;;;;;;;0.75;0.35;;;;;;;12.72;67.36;100366.41;4447566;32;33209;-79
2023/10/10 05:30:47;;;;;;;0.40;0.40;;;;;;;12.79;66.64;100367.81;4459402;32;32965;-79
2023/10/10 05:33:19;;;;;;;0.40;0.20;;;;;;;12.94;66.65;100374.25;4470307;32;33646;-81
2023/10/10 05:35:57;;;;;;;0.40;0.40;;;;;;;13.02;65.96;100372.13;4458907;32;33011;-79
2023/10/10 05:38:25;;;;;;;0.55;0.55;;;;;;;12.80;66.93;100374.00;4469838;32;34786;-79
2023/10/10 05:40:53;;;;;;;0.50;0.50;;;;;;;13.48;64.35;100385.97;4451671;32;33116;-79
2023/10/10 05:43:26;;;;;;;0.40;0.40;;;;;;;13.17;65.23;100388.28;4461974;32;33482;-79
2023/10/10 05:45:54;;;;;;;0.32;0.28;;;;;;;13.30;65.14;100385.03;4453426;32;33211;-79
2023/10/10 05:48:23;;;;;;;0.88;0.88;;;;;;;13.47;64.16;100394.84;4459201;32;33968;-79
2023/10/10 05:50:51;;;;;;;1.00;1.00;;;;;;;13.60;62.88;100397.81;4475526;32;34271;-79
2023/10/10 05:53:20;;;;;;;0.62;0.60;;;;;;;13.14;64.00;100396.34;4474539;32;33352;-79
2023/10/10 05:55:53;;;;;;;2.50;0.85;;;;;;;12.95;64.68;100397.16;4461589;32;33013;-79
2023/10/10 05:58:21;;;;;;;1.73;1.62;;;;;;;13.05;64.50;100403.81;4474011;32;33907;-79
2023/10/10 06:00:48;;;;;;;0.45;0.45;;;;;;;13.16;64.13;100408.62;4460452;32;34336;-80
2023/10/10 06:03:17;;;;;;;1.65;1.23;;;;;;;12.84;65.95;100406.53;4459388;32;34166;-80
2023/10/10 06:05:45;;;;;;;1.37;0.98;;;;;;;13.11;64.80;100401.81;4461044;32;32786;-79
2023/10/10 06:08:13;;;;;;;0.22;0.22;;;;;;;12.99;64.97;100412.00;4461894;32;32940;-79
2023/10/10 06:10:43;;;;;;;0.60;0.25;;;;;;;13.50;63.25;100412.44;4473085;32;33511;-80
2023/10/10 06:13:38;;;;;;;0.20;0.20;;;;;;;13.19;64.32;100412.91;4462007;32;33011;-79
2023/10/10 06:16:14;;;;;;;0.20;0.20;;;;;;;12.97;65.10;100413.87;4475151;32;34281;-79
2023/10/10 06:18:45;;;;;;;1.00;0.85;;;;;;;13.04;64.61;100417.97;4465012;31;33289;-79
2023/10/10 06:21:16;;;;;;;1.85;1.37;;;;;;;13.18;63.78;100427.97;4461757;32;35070;-80
2023/10/10 06:23:44;;;;;;;1.12;0.65;;;;;;;12.99;64.00;100419.97;4463835;32;32399;-80
2023/10/10 06:26:12;;;;;;;0.98;0.98;;;;;;;12.83;63.97;100432.16;4447748;32;33698;-79
2023/10/10 06:28:47;;;;;;;1.17;0.65;;;;;;;13.16;62.80;100428.97;4472393;32;33146;-79
2023/10/10 06:31:20;;;;;;;0.10;0.10;;;;;;;13.37;61.25;100436.00;4462533;32;32920;-80
2023/10/10 06:33:49;;;;;;;0.40;0.28;;;;;;;13.08;61.86;100435.47;4474005;32;32527;-80
2023/10/10 06:41:36;;;;;;;0.40;0.40;;;;;;;13.18;62.00;100432.41;4473359;32;35132;-80
2023/10/10 06:44:05;;;;;;;0.50;0.50;;;;;;;13.36;61.35;100431.62;4459951;32;32547;-80
2023/10/10 06:46:32;;;;;;;1.58;1.48;;;;;;;13.38;61.87;100440.37;4472097;32;33943;-80
2023/10/10 06:49:06;;;;;;;1.90;0.75;;;;;;;13.35;60.96;100442.31;4459519;32;33959;-80
2023/10/10 06:51:40;;;;;;;2.97;1.12;;;;;;;13.28;60.41;100445.22;4473673;32;34338;-79
2023/10/10 06:54:27;;;;;;;0.20;0.20;;;;;;;13.60;59.52;100439.41;4461592;32;34238;-80
2023/10/10 06:59:31;;;;;;;0.32;0.32;;;;;;;13.97;58.49;100463.31;4470629;32;33366;-80
2023/10/10 07:02:13;;;;;;;0.73;0.73;;;;;;;13.73;59.50;100460.00;4473115;32;33611;-81
2023/10/10 07:04:42;;;;;;;2.33;1.50;;;;;;;13.95;58.68;100467.81;4462278;32;32983;-80
2023/10/10 07:07:26;;;;;;;0.73;0.68;;;;;;;13.72;59.85;100455.62;4464252;32;33510;-81
2023/10/10 07:09:58;;;;;;;3.60;0.77;;;;;;;13.54;61.89;100464.44;4470943;32;32036;-80
2023/10/10 07:13:18;;;;;;;2.37;1.35;;;;;;;13.62;61.65;100461.41;4451270;32;34225;-79
2023/10/10 07:15:54;;;;;;;1.27;1.17;;;;;;;13.61;60.94;100454.37;4459883;32;34300;-80
2023/10/10 07:18:25;;;;;;;0.77;0.77;;;;;;;13.56;61.55;100474.03;4450645;32;33076;-80
2023/10/10 07:21:17;;;;;;;1.05;1.02;;;;;;;13.85;60.81;100463.87;4479072;32;33969;-81
2023/10/10 07:24:05;;;;;;;1.97;1.80;;;;;;;13.59;62.11;100481.00;4462635;32;33607;-80
2023/10/10 07:26:41;;;;;;;2.80;1.92;;;;;;;13.87;60.94;100485.91;4460835;32;32306;-80
2023/10/10 07:29:26;;;;;;;0.55;0.55;;;;;;;13.96;60.43;100474.00;4462271;32;32923;-80
2023/10/10 07:32:04;;;;;;;1.95;1.27;;;;;;;13.97;60.26;100481.88;4476424;32;33179;-80
2023/10/10 07:34:39;;;;;;;1.30;1.20;;;;;;;13.95;59.79;100473.12;4464476;32;33884;-80
2023/10/10 07:37:08;;;;;;;2.28;1.98;;;;;;;13.92;60.31;100481.25;4459994;32;33220;-80
2023/10/10 07:39:55;;;;;;;0.70;0.68;;;;;;;14.17;59.27;100482.75;4449274;32;33992;-81
2023/10/10 07:42:31;;;;;;;2.33;1.40;;;;;;;14.00;59.33;100481.72;4460951;32;33424;-80
2023/10/10 07:45:02;;;;;;;1.33;1.23;;;;;;;14.27;57.51;100478.69;4463321;32;32233;-80
2023/10/10 07:47:32;;;;;;;3.00;2.25;;;;;;;14.48;56.52;100483.03;4457763;32;33066;-80
2023/10/10 07:50:08;;;;;;;3.85;1.23;;;;;;;14.25;57.26;100475.28;4459279;32;35880;-80
2023/10/10 07:52:36;;;;;;;2.05;1.37;;;;;;;13.91;59.40;100475.97;4472991;32;33879;-80
2023/10/10 07:55:04;;;;;;;1.27;1.17;;;;;;;13.89;59.50;100481.37;4460749;32;32859;-80
2023/10/10 07:57:55;;;;;;;1.60;1.50;;;;;;;14.08;59.19;100468.94;4445429;32;33428;-80
2023/10/10 08:00:26;;;;;;;0.47;0.47;;;;;;;14.10;58.69;100471.56;4473026;32;33978;-80
2023/10/10 08:02:54;;;;;;;1.90;1.80;;;;;;;14.05;58.84;100481.50;4461082;32;33791;-81
2023/10/10 08:05:22;;;;;;;1.35;1.25;;;;;;;14.13;58.40;100476.72;4459289;32;34809;-80
2023/10/10 08:07:50;;;;;;;1.55;1.45;;;;;;;14.20;57.49;100471.97;4459264;32;32580;-80
2023/10/10 08:10:37;;;;;;;1.83;1.62;;;;;;;14.44;56.34;100476.09;4446960;32;33726;-80
2023/10/10 08:13:12;;;;;;;2.42;0.93;;;;;;;14.25;55.69;100481.44;4474139;32;34400;-81
2023/10/10 08:15:56;;;;;;;6.37;1.35;;;;;;;13.96;56.98;100480.16;4452108;32;32974;-80
2023/10/10 08:19:10;;;;;;;0.20;0.20;;;;;;;14.02;57.54;100463.94;4461267;32;32345;-80
2023/10/10 08:21:13;;;;;;;1.33;1.30;;;;;;;14.41;56.25;100476.25;4468782;32;34578;-80
2023/10/10 08:23:43;;;;;;;9.90;3.62;;;;;;;14.59;55.13;100483.34;4460372;32;36582;-80
2023/10/10 08:26:38;;;;;;;1.67;1.58;;;;;;;14.70;55.92;100476.63;4445785;32;34104;-80
2023/10/10 08:29:08;;;;;;;28.95;1.77;;;;;;;14.57;56.68;100487.87;4474445;32;34055;-80
2023/10/10 08:31:38;;;;;;;3.78;1.00;;;;;;;14.52;56.31;100494.34;4473439;32;33084;-81
2023/10/10 08:34:08;;;;;;;0.65;0.65;;;;;;;14.51;56.85;100503.25;4459746;32;33712;-80
2023/10/10 08:36:43;;;;;;;2.83;2.62;;;;;;;14.47;56.89;100502.50;4469961;32;33105;-80
2023/10/10 08:41:45;;;;;;;0.62;0.62;;;;;;;14.42;58.48;100501.00;4471889;32;32827;-81
2023/10/10 08:44:20;;;;;;;6.93;1.98;;;;;;;14.67;58.04;100506.91;4448138;32;34041;-80
2023/10/10 08:46:49;;;;;;;5.82;1.73;;;;;;;14.55;58.23;100511.00;4462753;32;34415;-81
2023/10/10 08:49:16;;;;;;;14.77;2.72;;;;;;;14.55;58.66;100511.00;4445343;32;32399;-80
2023/10/10 08:51:45;;;;;;;5.85;3.00;;;;;;;14.71;58.36;100510.25;4457655;32;33178;-80
2023/10/10 08:54:15;;;;;;;1.98;1.23;;;;;;;14.93;58.08;100505.59;4459580;32;34161;-80
2023/10/10 08:57:38;;;;;;;2.85;2.55;;;;;;;14.89;57.04;100504.00;4469386;32;34380;-80
2023/10/10 08:59:35;;;;;;;2.15;2.05;;;;;;;15.08;57.02;100504.78;4457151;32;32622;-80
2023/10/10 09:02:15;;;;;;;1.50;1.23;;;;;;;15.40;56.05;100512.06;4459283;32;32675;-81
2023/10/10 09:04:44;;;;;;;3.30;1.67;;;;;;;15.26;56.64;100520.75;4461642;32;34067;-80
2023/10/10 09:07:20;;;;;;;5.57;1.35;;;;;;;15.08;57.55;100510.12;4470505;32;33633;-80
2023/10/10 09:10:04;;;;;;;0.93;0.90;;;;;;;15.14;57.06;100516.91;4470946;32;32565;-81
2023/10/10 09:12:52;;;;;;;1.80;1.60;;;;;;;15.06;56.55;100520.00;4471522;32;33470;-80
2023/10/10 09:15:22;;;;;;;5.18;2.33;;;;;;;15.32;55.39;100525.75;4462773;32;33717;-81
2023/10/10 09:17:55;;;;;;;2.08;1.45;;;;;;;15.19;55.64;100528.22;4471664;32;33963;-80
2023/10/10 09:20:28;;;;;;;3.83;1.48;;;;;;;15.09;55.81;100533.09;4455998;32;33195;-80
2023/10/10 09:23:11;;;;;;;4.18;2.95;;;;;;;15.56;55.43;100529.78;4471078;32;32807;-80
2023/10/10 09:25:44;;;;;;;0.90;0.90;;;;;;;15.53;55.00;100531.78;4464419;32;33124;-81
2023/10/10 09:28:15;;;;;;;9.68;1.08;;;;;;;15.40;55.13;100539.53;4470562;32;33419;-81
2023/10/10 09:30:58;;;;;;;1.85;1.20;;;;;;;15.32;55.17;100523.97;4444179;32;32236;-80
2023/10/10 09:36:08;;;;;;;1.48;1.37;;;;;;;15.18;55.52;100533.59;4457582;32;33632;-80
2023/10/10 09:38:43;;;;;;;1.10;1.10;;;;;;;15.26;55.68;100523.44;4469276;32;34273;-80
2023/10/10 09:49:46;;;;;;;1.70;1.10;;;;;;;14.85;57.64;100548.50;4482587;31;33310;-81
2023/10/10 09:58:00;;;;;;;1.02;1.00;;;;;;;15.03;56.88;100546.72;4474270;32;33608;-80
2023/10/10 10:00:45;;;;;;;1.55;1.45;;;;;;;14.88;57.27;100539.53;4463596;32;33096;-80
2023/10/10 10:06:25;;;;;;;3.45;2.15;;;;;;;15.14;57.20;100524.03;4471824;32;32024;-80
2023/10/10 10:09:08;;;;;;;3.20;2.05;;;;;;;14.80;58.01;100525.75;4475687;32;34428;-80
2023/10/10 10:12:08;;;;;;;;;;;;;;;14.98;57.16;100540.78;4473954;32;33459;-80
2023/10/10 10:14:53;;;;;;;3.17;2.80;;;;;;;15.19;55.84;100536.19;4411251;32;32140;-80
2023/10/10 10:17:47;;;;;;;1.27;1.17;;;;;;;15.33;55.42;100531.03;4473549;32;33686;-80
2023/10/10 10:20:33;;;;;;;1.23;0.82;;;;;;;14.96;57.36;100539.16;4462625;32;33576;-80
2023/10/10 10:23:01;;;;;;;2.72;2.35;;;;;;;15.21;56.31;100530.78;4473319;32;33473;-80
2023/10/10 10:25:31;;;;;;;0.57;0.57;;;;;;;15.42;56.65;100527.00;4450141;32;35622;-81
2023/10/10 10:28:14;;;;;;;1.95;0.75;;;;;;;15.82;55.25;100520.47;4447244;32;32790;-80
2023/10/10 10:30:50;;;;;;;2.40;2.20;;;;;;;16.09;54.44;100519.88;4460189;32;33210;-80
2023/10/10 10:33:22;;;;;;;0.82;0.80;;;;;;;16.31;54.42;100512.44;4461510;32;35185;-81
2023/10/10 10:36:06;;;;;;;2.40;1.30;;;;;;;16.54;53.44;100519.13;4471990;32;34626;-80
2023/10/10 10:38:34;;;;;;;3.95;1.25;;;;;;;16.49;53.15;100523.00;4461248;32;33330;-80
2023/10/10 10:41:08;;;;;;;4.20;0.82;;;;;;;16.20;53.45;100528.16;4474332;32;33958;-80
2023/10/10 10:43:41;;;;;;;2.22;1.70;;;;;;;16.46;52.77;100526.69;4460621;32;34124;-80
2023/10/10 10:46:27;;;;;;;1.15;1.12;;;;;;;16.52;53.07;100523.72;4448565;32;33400;-80
2023/10/10 10:49:05;;;;;;;1.17;1.10;;;;;;;16.65;52.58;100516.69;4460219;32;34400;-80
2023/10/10 10:51:41;;;;;;;2.62;1.17;;;;;;;16.28;54.00;100519.72;4472242;32;34336;-81
2023/10/10 10:54:29;;;;;;;4.60;1.98;;;;;;;16.24;54.06;100521.72;4461258;32;33879;-80
2023/10/10 10:57:02;;;;;;;1.73;1.62;;;;;;;16.18;54.59;100526.53;4461635;32;32137;-80
2023/10/10 10:59:38;;;;;;;3.70;3.33;;;;;;;16.37;54.54;100524.53;4448001;32;33187;-80
2023/10/10 11:02:16;;;;;;;1.55;1.42;;;;;;;16.48;54.30;100522.16;4459412;32;33615;-80
2023/10/10 11:04:49;;;;;;;1.08;1.08;;;;;;;16.57;54.66;100528.78;4461600;32;33841;-80
2023/10/10 11:07:29;;;;;;;2.47;2.15;;;;;;;16.61;54.00;100523.16;4452763;32;32236;-80
2023/10/10 11:10:08;;;;;;;1.70;1.58;;;;;;;16.60;52.66;100526.78;4459275;32;33409;-80
2023/10/10 11:12:40;;;;;;;1.37;1.30;;;;;;;16.33;54.20;100523.00;4468402;32;33222;-80
2023/10/10 11:15:10;;;;;;;11.00;1.02;;;;;;;16.33;54.94;100517.66;4460531;32;32907;-80
2023/10/10 11:17:39;;;;;;;1.50;1.40;;;;;;;16.11;55.67;100523.34;4452718;32;32482;-80
2023/10/10 11:23:10;;;;;;;2.70;1.83;;;;;;;16.58;52.89;100518.00;4464992;32;33016;-82
2023/10/10 11:25:45;;;;;;;3.75;2.25;;;;;;;16.61;52.99;100516.97;4464816;32;33349;-81
2023/10/10 11:28:23;;;;;;;0.68;0.68;;;;;;;16.67;52.62;100513.12;4474088;32;33060;-81
2023/10/10 11:30:58;;;;;;;3.92;0.95;;;;;;;16.63;52.27;100513.28;4470088;32;33824;-82
2023/10/10 11:33:48;;;;;;;5.22;1.73;;;;;;;16.59;52.44;100509.06;4451398;32;33137;-81
2023/10/10 11:36:51;;;;;;;1.33;1.23;;;;;;;16.30;53.40;100496.53;4473690;32;34673;-82
2023/10/10 11:39:31;;;;;;;1.70;1.60;;;;;;;16.04;55.47;100496.16;4463298;32;32935;-81
2023/10/10 11:42:04;;;;;;;2.78;1.85;;;;;;;16.28;55.27;100482.44;4458128;32;33548;-81
2023/10/10 11:44:33;;;;;;;6.95;3.20;;;;;;;16.29;55.16;100486.84;4444990;32;33445;-81
2023/10/10 11:47:07;;;;;;;2.42;2.22;;;;;;;16.05;56.01;100497.06;4459698;32;219446;-82
2023/10/10 11:49:35;;;;;;;2.00;1.87;;;;;;;16.06;56.79;100494.31;4461896;32;32705;-82
2023/10/10 11:52:03;;;;;;;3.65;1.45;;;;;;;16.31;56.42;100488.44;4465751;32;33319;-81
2023/10/10 11:54:31;;;;;;;1.67;1.33;;;;;;;16.57;55.36;100489.66;4460710;32;33141;-82
2023/10/10 11:56:59;;;;;;;2.53;2.33;;;;;;;16.93;55.26;100479.59;4457733;32;33306;-82
2023/10/10 11:59:27;;;;;;;4.95;1.65;;;;;;;16.67;55.61;100484.63;4458016;32;33433;-82
2023/10/10 12:02:07;;;;;;;0.65;0.55;;;;;;;16.98;55.01;100473.03;4461783;32;33151;-81
2023/10/10 12:04:37;;;;;;;4.25;1.33;;;;;;;16.70;56.86;100467.59;4461911;32;33714;-82
2023/10/10 12:07:05;;;;;;;1.95;1.75;;;;;;;17.34;54.07;100466.44;4460520;32;33232;-82
2023/10/10 12:09:33;;;;;;;1.70;1.45;;;;;;;17.30;54.66;100459.56;4463914;32;32487;-82
2023/10/10 12:12:03;;;;;;;1.80;1.55;;;;;;;17.03;56.59;100465.62;4473095;32;34971;-81
2023/10/10 12:14:31;;;;;;;1.40;1.30;;;;;;;17.25;55.90;100465.19;4450499;32;33612;-82
2023/10/10 12:17:05;;;;;;;4.18;2.08;;;;;;;17.55;54.84;100462.44;4473798;32;33856;-82
2023/10/10 12:19:36;;;;;;;1.90;1.17;;;;;;;17.84;53.72;100457.13;4473190;32;33329;-81
2023/10/10 12:22:10;;;;;;;1.17;1.10;;;;;;;18.05;53.41;100449.56;4461654;32;33818;-82
2023/10/10 12:24:39;;;;;;;4.45;2.70;;;;;;;18.32;51.47;100449.56;4475210;32;34408;-82
2023/10/10 12:27:07;;;;;;;2.12;2.03;;;;;;;18.12;52.17;100449.06;4461216;32;33912;-82
2023/10/10 12:29:47;;;;;;;2.20;1.62;;;;;;;18.35;52.07;100452.03;4471293;32;34017;-82
2023/10/10 12:32:18;;;;;;;3.83;2.40;;;;;;;18.01;53.53;100459.59;4461736;32;35056;-82
2023/10/10 12:34:47;;;;;;;0.52;0.52;;;;;;;17.58;54.79;100472.94;4471780;32;34846;-82
2023/10/10 12:37:17;;;;;;;5.10;2.95;;;;;;;17.80;54.77;100466.28;4465194;32;35269;-82
2023/10/10 12:39:46;;;;;;;3.75;2.87;;;;;;;18.08;53.24;100465.38;4475351;31;32953;-82
2023/10/10 12:42:16;;;;;;;2.47;2.28;;;;;;;18.25;52.65;100461.63;4463553;32;32708;-82
2023/10/10 12:44:47;;;;;;;3.10;1.73;;;;;;;18.08;53.74;100466.22;4458610;32;34088;-82
2023/10/10 12:47:17;;;;;;;1.52;0.90;;;;;;;18.27;53.68;100454.34;4459838;31;33590;-82
2023/10/10 12:49:45;;;;;;;7.20;2.70;;;;;;;18.48;53.42;100458.31;4461459;32;32749;-82
2023/10/10 12:52:16;;;;;;;1.83;1.60;;;;;;;19.17;51.38;100438.47;4460590;32;33343;-81
2023/10/10 12:54:47;;;;;;;1.75;1.15;;;;;;;19.22;50.86;100431.94;4474723;32;33342;-81
2023/10/10 12:57:15;;;;;;;11.95;3.42;;;;;;;18.82;52.36;100445.38;4455834;32;33137;-82
2023/10/10 12:59:46;;;;;;;1.27;1.12;;;;;;;19.26;51.14;100449.50;4460185;32;33617;-83
2023/10/10 13:02:15;;;;;;;;;;;;;;;19.57;50.68;100442.88;4459013;32;33890;-81
2023/10/10 13:04:46;;;;;;;2.92;2.72;;;;;;;19.43;51.02;100439.34;4463095;32;33601;-82
2023/10/10 13:07:18;;;;;;;4.28;2.53;;;;;;;19.51;50.69;100443.28;4459322;32;33028;-82
2023/10/10 13:09:46;;;;;;;4.15;3.85;;;;;;;19.87;49.53;100434.47;4469975;32;33414;-82
2023/10/10 13:12:26;;;;;;;2.70;1.75;;;;;;;19.40;51.50;100434.19;4458605;32;33269;-81
2023/10/10 13:15:11;;;;;;;2.25;1.90;;;;;;;19.24;52.10;100436.22;4472299;32;33322;-81
2023/10/10 13:17:50;;;;;;;4.80;2.30;;;;;;;19.82;49.95;100431.28;4473289;32;33584;-82
2023/10/10 13:20:24;;;;;;;2.40;2.30;;;;;;;19.71;50.82;100431.19;4475841;32;31727;-81
2023/10/10 13:22:51;;;;;;;3.28;2.65;;;;;;;19.80;50.63;100427.88;4448787;32;31818;-81
2023/10/10 13:25:22;;;;;;;3.30;2.20;;;;;;;19.50;51.42;100421.00;4469504;32;31808;-82
2023/10/10 13:27:52;;;;;;;0.55;0.55;;;;;;;19.95;50.17;100416.03;4459974;32;33594;-84
2023/10/10 13:30:23;;;;;;;13.32;1.83;;;;;;;20.10;49.76;100425.62;4459027;32;35045;-84
2023/10/10 13:32:51;;;;;;;3.78;2.40;;;;;;;20.20;49.49;100417.75;4456975;32;33273;-84
2023/10/10 13:35:19;;;;;;;5.97;1.92;;;;;;;20.10;49.79;100417.56;4457174;32;34053;-84
2023/10/10 13:37:48;;;;;;;5.18;3.12;;;;;;;19.76;52.30;100421.84;4457993;32;33927;-83
2023/10/10 13:40:20;;;;;;;2.87;2.58;;;;;;;19.55;52.42;100418.84;4451824;32;30856;-83
2023/10/10 13:42:49;;;;;;;2.15;1.98;;;;;;;19.74;51.92;100422.91;4459336;32;33790;-83
2023/10/10 13:45:22;;;;;;;3.33;1.98;;;;;;;19.84;51.92;100413.25;4458387;32;34231;-83
2023/10/10 13:47:51;;;;;;;1.42;1.33;;;;;;;19.85;51.63;100415.84;4457361;32;34093;-83
2023/10/10 13:50:45;;;;;;;3.87;0.93;;;;;;;19.91;51.53;100414.53;4443807;32;33600;-83
2023/10/10 13:53:14;;;;;;;1.25;1.05;;;;;;;19.66;52.84;100410.94;4464691;32;32988;-84
2023/10/10 13:55:46;;;;;;;1.62;1.52;;;;;;;19.86;52.46;100411.34;4459253;32;33579;-83
2023/10/10 13:58:16;;;;;;;1.95;1.33;;;;;;;19.93;52.10;100413.44;4473574;32;33361;-83
2023/10/10 14:00:55;;;;;;;2.53;2.22;;;;;;;20.01;51.95;100414.72;4450974;32;32332;-83
2023/10/10 14:03:35;;;;;;;1.60;1.35;;;;;;;19.80;53.04;100409.09;4450433;32;32726;-83
2023/10/10 14:06:10;;;;;;;2.10;1.87;;;;;;;19.83;53.93;100414.22;4459903;32;33039;-84
2023/10/10 14:08:43;;;;;;;5.40;3.08;;;;;;;20.23;52.55;100409.50;4459870;32;33838;-83
2023/10/10 14:11:20;;;;;;;1.60;1.50;;;;;;;20.23;52.28;100409.50;4472036;32;33584;-84
2023/10/10 14:13:50;;;;;;;3.05;2.72;;;;;;;20.02;53.11;100411.91;4456155;32;33925;-83
2023/10/10 14:16:18;;;;;;;3.62;2.83;;;;;;;19.75;54.53;100411.22;4471197;32;32876;-84
2023/10/10 14:18:47;;;;;;;11.50;3.62;;;;;;;19.75;54.91;100414.78;4446090;32;34586;-84
2023/10/10 14:21:27;;;;;;;3.70;3.05;;;;;;;20.02;53.92;100405.69;4460078;32;33357;-83
2023/10/10 14:24:04;;;;;;;3.03;2.83;;;;;;;19.78;54.69;100411.88;4451035;32;32309;-83
2023/10/10 14:26:36;;;;;;;3.20;2.08;;;;;;;19.76;55.32;100415.66;4473506;32;33697;-83
2023/10/10 14:29:50;;;;;;;;;;;;;;;;;;;;;
2023/10/10 14:32:59;;;;;;;4.97;2.90;;;;;;;19.74;55.51;100406.84;4443915;32;32865;-84